sensor_id;sensor_type;location;lat;lon;timestamp;P1;durP1;ratioP1;P2;durP2;ratioP2
8663;SDS011;4369;47.842;13.096;2022-07-17T00:02:11;3.80;;;2.90;;
8663;SDS011;4369;47.842;13.096;2022-07-17T00:04:39;4.33;;;3.23;;
8663;SDS011;4369;47.842;13.096;2022-07-17T00:07:06;4.27;;;3.13;;
8663;SDS011;4369;47.842;13.096;2022-07-17T00:09:32;5.87;;;3.30;;
8663;SDS011;4369;47.842;13.096;2022-07-17T00:12:00;4.10;;;3.00;;
8663;SDS011;4369;47.842;13.096;2022-07-17T00:14:27;3.73;;;3.03;;
8663;SDS011;4369;47.842;13.096;2022-07-17T00:16:54;3.30;;;3.10;;
8663;SDS011;4369;47.842;13.096;2022-07-17T00:19:23;3.40;;;3.20;;
8663;SDS011;4369;47.842;13.096;2022-07-17T00:21:51;4.03;;;3.00;;
8663;SDS011;4369;47.842;13.096;2022-07-17T00:24:18;3.60;;;2.90;;
8663;SDS011;4369;47.842;13.096;2022-07-17T00:26:46;3.60;;;3.30;;
8663;SDS011;4369;47.842;13.096;2022-07-17T00:29:13;3.47;;;3.17;;
8663;SDS011;4369;47.842;13.096;2022-07-17T00:31:40;3.30;;;3.00;;
8663;SDS011;4369;47.842;13.096;2022-07-17T00:34:07;3.37;;;3.07;;
8663;SDS011;4369;47.842;13.096;2022-07-17T00:36:34;3.70;;;3.00;;
8663;SDS011;4369;47.842;13.096;2022-07-17T00:39:02;3.73;;;3.43;;
8663;SDS011;4369;47.842;13.096;2022-07-17T00:41:29;3.47;;;3.10;;
8663;SDS011;4369;47.842;13.096;2022-07-17T00:44:02;3.37;;;3.07;;
8663;SDS011;4369;47.842;13.096;2022-07-17T00:46:29;3.70;;;3.13;;
8663;SDS011;4369;47.842;13.096;2022-07-17T00:48:56;4.10;;;3.70;;
8663;SDS011;4369;47.842;13.096;2022-07-17T00:51:24;3.50;;;3.17;;
8663;SDS011;4369;47.842;13.096;2022-07-17T00:53:51;4.50;;;3.30;;
8663;SDS011;4369;47.842;13.096;2022-07-17T00:56:20;4.43;;;3.20;;
8663;SDS011;4369;47.842;13.096;2022-07-17T00:58:49;4.50;;;3.47;;
8663;SDS011;4369;47.842;13.096;2022-07-17T01:01:17;3.63;;;2.97;;
8663;SDS011;4369;47.842;13.096;2022-07-17T01:03:44;3.17;;;2.87;;
8663;SDS011;4369;47.842;13.096;2022-07-17T01:06:10;3.30;;;3.00;;
8663;SDS011;4369;47.842;13.096;2022-07-17T01:08:37;3.83;;;3.53;;
8663;SDS011;4369;47.842;13.096;2022-07-17T01:11:05;3.53;;;3.17;;
8663;SDS011;4369;47.842;13.096;2022-07-17T01:13:35;3.10;;;2.90;;
8663;SDS011;4369;47.842;13.096;2022-07-17T01:16:02;3.93;;;3.27;;
8663;SDS011;4369;47.842;13.096;2022-07-17T01:18:29;4.30;;;3.10;;
8663;SDS011;4369;47.842;13.096;2022-07-17T01:21:02;4.77;;;3.40;;
8663;SDS011;4369;47.842;13.096;2022-07-17T01:23:29;3.27;;;3.00;;
8663;SDS011;4369;47.842;13.096;2022-07-17T01:25:56;4.83;;;3.27;;
8663;SDS011;4369;47.842;13.096;2022-07-17T01:28:23;5.93;;;3.40;;
8663;SDS011;4369;47.842;13.096;2022-07-17T01:30:51;3.40;;;3.10;;
8663;SDS011;4369;47.842;13.096;2022-07-17T01:33:18;3.57;;;3.20;;
8663;SDS011;4369;47.842;13.096;2022-07-17T01:35:46;4.90;;;3.33;;
8663;SDS011;4369;47.842;13.096;2022-07-17T01:38:14;4.07;;;3.60;;
8663;SDS011;4369;47.842;13.096;2022-07-17T01:40:41;3.73;;;3.27;;
8663;SDS011;4369;47.842;13.096;2022-07-17T01:43:08;3.80;;;3.40;;
8663;SDS011;4369;47.842;13.096;2022-07-17T01:45:35;4.33;;;3.30;;
8663;SDS011;4369;47.842;13.096;2022-07-17T01:48:02;5.37;;;3.30;;
8663;SDS011;4369;47.842;13.096;2022-07-17T01:50:29;3.73;;;3.07;;
8663;SDS011;4369;47.842;13.096;2022-07-17T01:52:56;3.80;;;3.30;;
8663;SDS011;4369;47.842;13.096;2022-07-17T01:55:24;5.17;;;2.97;;
8663;SDS011;4369;47.842;13.096;2022-07-17T01:57:51;3.60;;;3.30;;
8663;SDS011;4369;47.842;13.096;2022-07-17T02:00:18;3.60;;;3.13;;
8663;SDS011;4369;47.842;13.096;2022-07-17T02:02:48;3.97;;;3.17;;
8663;SDS011;4369;47.842;13.096;2022-07-17T02:05:14;3.50;;;3.17;;
8663;SDS011;4369;47.842;13.096;2022-07-17T02:07:41;6.87;;;3.70;;
8663;SDS011;4369;47.842;13.096;2022-07-17T02:10:09;6.73;;;3.77;;
8663;SDS011;4369;47.842;13.096;2022-07-17T02:12:40;4.93;;;3.33;;
8663;SDS011;4369;47.842;13.096;2022-07-17T02:15:07;3.47;;;3.17;;
8663;SDS011;4369;47.842;13.096;2022-07-17T02:17:34;5.37;;;3.63;;
8663;SDS011;4369;47.842;13.096;2022-07-17T02:20:02;3.77;;;3.37;;
8663;SDS011;4369;47.842;13.096;2022-07-17T02:22:29;3.60;;;3.30;;
8663;SDS011;4369;47.842;13.096;2022-07-17T02:24:56;5.20;;;3.73;;
8663;SDS011;4369;47.842;13.096;2022-07-17T02:27:23;4.53;;;3.83;;
8663;SDS011;4369;47.842;13.096;2022-07-17T02:29:51;5.10;;;3.67;;
8663;SDS011;4369;47.842;13.096;2022-07-17T02:32:18;4.13;;;3.70;;
8663;SDS011;4369;47.842;13.096;2022-07-17T02:34:45;7.70;;;3.53;;
8663;SDS011;4369;47.842;13.096;2022-07-17T02:37:12;4.70;;;3.50;;
8663;SDS011;4369;47.842;13.096;2022-07-17T02:39:39;3.60;;;3.30;;
8663;SDS011;4369;47.842;13.096;2022-07-17T02:42:17;4.13;;;3.73;;
8663;SDS011;4369;47.842;13.096;2022-07-17T02:44:45;4.93;;;3.70;;
8663;SDS011;4369;47.842;13.096;2022-07-17T02:47:13;4.53;;;3.60;;
8663;SDS011;4369;47.842;13.096;2022-07-17T02:49:46;5.40;;;3.63;;
8663;SDS011;4369;47.842;13.096;2022-07-17T02:52:13;4.67;;;3.40;;
8663;SDS011;4369;47.842;13.096;2022-07-17T02:54:40;4.87;;;3.40;;
8663;SDS011;4369;47.842;13.096;2022-07-17T02:57:07;4.30;;;3.90;;
8663;SDS011;4369;47.842;13.096;2022-07-17T02:59:34;4.70;;;4.20;;
8663;SDS011;4369;47.842;13.096;2022-07-17T03:02:01;4.00;;;3.70;;
8663;SDS011;4369;47.842;13.096;2022-07-17T03:04:29;4.43;;;3.67;;
8663;SDS011;4369;47.842;13.096;2022-07-17T03:06:56;5.57;;;3.63;;
8663;SDS011;4369;47.842;13.096;2022-07-17T03:09:23;5.63;;;3.80;;
8663;SDS011;4369;47.842;13.096;2022-07-17T03:11:50;4.30;;;3.50;;
8663;SDS011;4369;47.842;13.096;2022-07-17T03:14:17;4.20;;;3.77;;
8663;SDS011;4369;47.842;13.096;2022-07-17T03:16:44;3.80;;;3.40;;
8663;SDS011;4369;47.842;13.096;2022-07-17T03:19:11;4.30;;;3.50;;
8663;SDS011;4369;47.842;13.096;2022-07-17T03:21:39;3.50;;;3.20;;
8663;SDS011;4369;47.842;13.096;2022-07-17T03:24:06;3.60;;;3.30;;
8663;SDS011;4369;47.842;13.096;2022-07-17T03:26:33;3.90;;;3.30;;
8663;SDS011;4369;47.842;13.096;2022-07-17T03:29:00;3.80;;;3.50;;
8663;SDS011;4369;47.842;13.096;2022-07-17T03:31:26;5.23;;;3.27;;
8663;SDS011;4369;47.842;13.096;2022-07-17T03:33:53;4.07;;;3.67;;
8663;SDS011;4369;47.842;13.096;2022-07-17T03:36:20;4.13;;;3.73;;
8663;SDS011;4369;47.842;13.096;2022-07-17T03:38:48;5.20;;;3.57;;
8663;SDS011;4369;47.842;13.096;2022-07-17T03:41:15;3.87;;;3.50;;
8663;SDS011;4369;47.842;13.096;2022-07-17T03:43:42;3.83;;;3.43;;
8663;SDS011;4369;47.842;13.096;2022-07-17T03:46:09;5.93;;;3.23;;
8663;SDS011;4369;47.842;13.096;2022-07-17T03:48:36;4.03;;;3.73;;
8663;SDS011;4369;47.842;13.096;2022-07-17T03:51:03;4.77;;;3.77;;
8663;SDS011;4369;47.842;13.096;2022-07-17T03:53:31;5.23;;;3.37;;
8663;SDS011;4369;47.842;13.096;2022-07-17T03:55:59;4.70;;;4.17;;
8663;SDS011;4369;47.842;13.096;2022-07-17T03:58:26;4.63;;;3.93;;
8663;SDS011;4369;47.842;13.096;2022-07-17T04:00:54;4.93;;;3.47;;
8663;SDS011;4369;47.842;13.096;2022-07-17T04:03:21;6.17;;;3.53;;
8663;SDS011;4369;47.842;13.096;2022-07-17T04:05:48;3.50;;;3.20;;
8663;SDS011;4369;47.842;13.096;2022-07-17T04:08:16;5.27;;;3.50;;
8663;SDS011;4369;47.842;13.096;2022-07-17T04:10:43;4.47;;;3.60;;
8663;SDS011;4369;47.842;13.096;2022-07-17T04:13:11;7.43;;;3.67;;
8663;SDS011;4369;47.842;13.096;2022-07-17T04:15:38;3.93;;;3.30;;
8663;SDS011;4369;47.842;13.096;2022-07-17T04:18:22;4.10;;;3.67;;
8663;SDS011;4369;47.842;13.096;2022-07-17T04:20:50;3.95;;;3.55;;
8663;SDS011;4369;47.842;13.096;2022-07-17T04:23:18;4.57;;;3.53;;
8663;SDS011;4369;47.842;13.096;2022-07-17T04:25:45;4.20;;;3.63;;
8663;SDS011;4369;47.842;13.096;2022-07-17T04:28:14;4.40;;;3.77;;
8663;SDS011;4369;47.842;13.096;2022-07-17T04:30:41;3.90;;;3.50;;
8663;SDS011;4369;47.842;13.096;2022-07-17T04:33:08;4.70;;;3.50;;
8663;SDS011;4369;47.842;13.096;2022-07-17T04:35:35;4.70;;;3.80;;
8663;SDS011;4369;47.842;13.096;2022-07-17T04:38:03;3.63;;;3.33;;
8663;SDS011;4369;47.842;13.096;2022-07-17T04:40:30;4.00;;;3.60;;
8663;SDS011;4369;47.842;13.096;2022-07-17T04:42:57;4.90;;;3.67;;
8663;SDS011;4369;47.842;13.096;2022-07-17T04:45:26;4.00;;;3.47;;
8663;SDS011;4369;47.842;13.096;2022-07-17T04:47:54;4.00;;;3.63;;
8663;SDS011;4369;47.842;13.096;2022-07-17T04:50:21;3.83;;;3.42;;
8663;SDS011;4369;47.842;13.096;2022-07-17T04:52:49;3.78;;;3.42;;
8663;SDS011;4369;47.842;13.096;2022-07-17T04:55:16;3.40;;;3.10;;
8663;SDS011;4369;47.842;13.096;2022-07-17T04:57:42;4.10;;;3.70;;
8663;SDS011;4369;47.842;13.096;2022-07-17T05:00:10;5.23;;;3.60;;
8663;SDS011;4369;47.842;13.096;2022-07-17T05:02:41;4.03;;;3.60;;
8663;SDS011;4369;47.842;13.096;2022-07-17T05:05:08;3.77;;;3.33;;
8663;SDS011;4369;47.842;13.096;2022-07-17T05:07:35;3.70;;;3.40;;
8663;SDS011;4369;47.842;13.096;2022-07-17T05:10:02;4.10;;;3.73;;
8663;SDS011;4369;47.842;13.096;2022-07-17T05:12:30;5.10;;;3.40;;
8663;SDS011;4369;47.842;13.096;2022-07-17T05:14:57;4.67;;;4.10;;
8663;SDS011;4369;47.842;13.096;2022-07-17T05:17:24;4.13;;;3.83;;
8663;SDS011;4369;47.842;13.096;2022-07-17T05:19:52;5.57;;;3.97;;
8663;SDS011;4369;47.842;13.096;2022-07-17T05:22:19;4.70;;;3.73;;
8663;SDS011;4369;47.842;13.096;2022-07-17T05:24:46;4.00;;;3.70;;
8663;SDS011;4369;47.842;13.096;2022-07-17T05:27:13;4.20;;;3.80;;
8663;SDS011;4369;47.842;13.096;2022-07-17T05:29:39;4.27;;;3.87;;
8663;SDS011;4369;47.842;13.096;2022-07-17T05:32:06;4.33;;;3.70;;
8663;SDS011;4369;47.842;13.096;2022-07-17T05:34:33;4.97;;;4.50;;
8663;SDS011;4369;47.842;13.096;2022-07-17T05:37:01;5.83;;;4.20;;
8663;SDS011;4369;47.842;13.096;2022-07-17T05:39:28;4.07;;;3.67;;
8663;SDS011;4369;47.842;13.096;2022-07-17T05:41:55;5.73;;;4.27;;
8663;SDS011;4369;47.842;13.096;2022-07-17T05:44:22;4.53;;;4.13;;
8663;SDS011;4369;47.842;13.096;2022-07-17T05:46:49;4.07;;;3.77;;
8663;SDS011;4369;47.842;13.096;2022-07-17T05:49:16;5.10;;;3.70;;
8663;SDS011;4369;47.842;13.096;2022-07-17T05:51:43;4.80;;;3.70;;
8663;SDS011;4369;47.842;13.096;2022-07-17T05:54:11;4.03;;;3.63;;
8663;SDS011;4369;47.842;13.096;2022-07-17T05:56:38;6.77;;;3.67;;
8663;SDS011;4369;47.842;13.096;2022-07-17T05:59:05;4.00;;;3.70;;
8663;SDS011;4369;47.842;13.096;2022-07-17T06:01:31;4.47;;;4.03;;
8663;SDS011;4369;47.842;13.096;2022-07-17T06:03:58;4.67;;;4.27;;
8663;SDS011;4369;47.842;13.096;2022-07-17T06:06:25;4.07;;;3.73;;
8663;SDS011;4369;47.842;13.096;2022-07-17T06:08:52;4.13;;;3.73;;
8663;SDS011;4369;47.842;13.096;2022-07-17T06:11:20;3.97;;;3.60;;
8663;SDS011;4369;47.842;13.096;2022-07-17T06:13:47;4.03;;;3.60;;
8663;SDS011;4369;47.842;13.096;2022-07-17T06:16:14;4.57;;;3.80;;
8663;SDS011;4369;47.842;13.096;2022-07-17T06:18:41;4.40;;;3.87;;
8663;SDS011;4369;47.842;13.096;2022-07-17T06:21:07;4.23;;;3.47;;
8663;SDS011;4369;47.842;13.096;2022-07-17T06:23:34;4.90;;;3.90;;
8663;SDS011;4369;47.842;13.096;2022-07-17T06:26:01;4.03;;;3.63;;
8663;SDS011;4369;47.842;13.096;2022-07-17T06:28:30;4.93;;;3.93;;
8663;SDS011;4369;47.842;13.096;2022-07-17T06:30:57;5.43;;;4.17;;
8663;SDS011;4369;47.842;13.096;2022-07-17T06:33:24;4.03;;;3.60;;
8663;SDS011;4369;47.842;13.096;2022-07-17T06:35:51;4.37;;;4.00;;
8663;SDS011;4369;47.842;13.096;2022-07-17T06:38:18;4.17;;;3.77;;
8663;SDS011;4369;47.842;13.096;2022-07-17T06:40:45;5.27;;;3.53;;
8663;SDS011;4369;47.842;13.096;2022-07-17T06:43:14;4.80;;;3.80;;
8663;SDS011;4369;47.842;13.096;2022-07-17T06:45:43;7.30;;;4.70;;
8663;SDS011;4369;47.842;13.096;2022-07-17T06:48:10;4.40;;;3.70;;
8663;SDS011;4369;47.842;13.096;2022-07-17T06:50:36;5.90;;;3.87;;
8663;SDS011;4369;47.842;13.096;2022-07-17T06:53:03;5.30;;;3.50;;
8663;SDS011;4369;47.842;13.096;2022-07-17T06:55:31;4.53;;;3.30;;
8663;SDS011;4369;47.842;13.096;2022-07-17T06:57:57;4.10;;;3.70;;
8663;SDS011;4369;47.842;13.096;2022-07-17T07:00:24;4.13;;;3.73;;
8663;SDS011;4369;47.842;13.096;2022-07-17T07:02:53;4.87;;;4.10;;
8663;SDS011;4369;47.842;13.096;2022-07-17T07:05:20;4.10;;;3.77;;
8663;SDS011;4369;47.842;13.096;2022-07-17T07:07:47;5.07;;;3.63;;
8663;SDS011;4369;47.842;13.096;2022-07-17T07:10:14;4.00;;;3.60;;
8663;SDS011;4369;47.842;13.096;2022-07-17T07:12:41;3.67;;;3.40;;
8663;SDS011;4369;47.842;13.096;2022-07-17T07:15:08;4.60;;;3.93;;
8663;SDS011;4369;47.842;13.096;2022-07-17T07:17:35;3.83;;;3.53;;
8663;SDS011;4369;47.842;13.096;2022-07-17T07:20:04;4.10;;;3.78;;
8663;SDS011;4369;47.842;13.096;2022-07-17T07:22:33;4.57;;;4.17;;
8663;SDS011;4369;47.842;13.096;2022-07-17T07:25:00;4.10;;;3.70;;
8663;SDS011;4369;47.842;13.096;2022-07-17T07:27:27;3.63;;;3.30;;
8663;SDS011;4369;47.842;13.096;2022-07-17T07:29:53;5.22;;;3.95;;
8663;SDS011;4369;47.842;13.096;2022-07-17T07:32:20;5.43;;;3.83;;
8663;SDS011;4369;47.842;13.096;2022-07-17T07:34:47;5.07;;;3.27;;
8663;SDS011;4369;47.842;13.096;2022-07-17T07:37:16;4.80;;;3.47;;
8663;SDS011;4369;47.842;13.096;2022-07-17T07:39:42;5.50;;;4.40;;
8663;SDS011;4369;47.842;13.096;2022-07-17T07:42:10;4.33;;;3.63;;
8663;SDS011;4369;47.842;13.096;2022-07-17T07:44:37;4.20;;;3.90;;
8663;SDS011;4369;47.842;13.096;2022-07-17T07:47:04;3.87;;;3.57;;
8663;SDS011;4369;47.842;13.096;2022-07-17T07:49:31;4.30;;;3.90;;
8663;SDS011;4369;47.842;13.096;2022-07-17T07:51:58;3.67;;;3.43;;
8663;SDS011;4369;47.842;13.096;2022-07-17T07:54:26;4.10;;;3.70;;
8663;SDS011;4369;47.842;13.096;2022-07-17T07:56:53;4.20;;;3.70;;
8663;SDS011;4369;47.842;13.096;2022-07-17T07:59:20;3.80;;;3.50;;
8663;SDS011;4369;47.842;13.096;2022-07-17T08:01:47;3.20;;;2.97;;
8663;SDS011;4369;47.842;13.096;2022-07-17T08:04:14;3.70;;;3.40;;
8663;SDS011;4369;47.842;13.096;2022-07-17T08:06:41;5.30;;;3.57;;
8663;SDS011;4369;47.842;13.096;2022-07-17T08:09:08;3.80;;;3.50;;
8663;SDS011;4369;47.842;13.096;2022-07-17T08:11:36;3.77;;;3.47;;
8663;SDS011;4369;47.842;13.096;2022-07-17T08:14:03;3.97;;;3.50;;
8663;SDS011;4369;47.842;13.096;2022-07-17T08:16:30;4.03;;;3.30;;
8663;SDS011;4369;47.842;13.096;2022-07-17T08:18:57;4.97;;;3.30;;
8663;SDS011;4369;47.842;13.096;2022-07-17T08:21:24;3.30;;;3.00;;
8663;SDS011;4369;47.842;13.096;2022-07-17T08:23:51;3.83;;;2.83;;
8663;SDS011;4369;47.842;13.096;2022-07-17T08:26:18;3.20;;;2.70;;
8663;SDS011;4369;47.842;13.096;2022-07-17T08:28:46;3.87;;;2.53;;
8663;SDS011;4369;47.842;13.096;2022-07-17T08:31:13;2.73;;;2.53;;
8663;SDS011;4369;47.842;13.096;2022-07-17T08:33:39;5.87;;;3.10;;
8663;SDS011;4369;47.842;13.096;2022-07-17T08:36:06;2.97;;;2.67;;
8663;SDS011;4369;47.842;13.096;2022-07-17T08:38:33;4.13;;;3.10;;
8663;SDS011;4369;47.842;13.096;2022-07-17T08:41:01;3.03;;;2.83;;
8663;SDS011;4369;47.842;13.096;2022-07-17T08:43:29;4.40;;;3.20;;
8663;SDS011;4369;47.842;13.096;2022-07-17T08:45:58;4.77;;;3.40;;
8663;SDS011;4369;47.842;13.096;2022-07-17T08:48:26;3.22;;;3.00;;
8663;SDS011;4369;47.842;13.096;2022-07-17T08:50:53;3.70;;;3.17;;
8663;SDS011;4369;47.842;13.096;2022-07-17T08:53:22;3.13;;;2.93;;
8663;SDS011;4369;47.842;13.096;2022-07-17T08:55:49;3.57;;;3.27;;
8663;SDS011;4369;47.842;13.096;2022-07-17T08:58:16;3.73;;;3.27;;
8663;SDS011;4369;47.842;13.096;2022-07-17T09:00:43;4.70;;;3.60;;
8663;SDS011;4369;47.842;13.096;2022-07-17T09:03:13;4.30;;;3.17;;
8663;SDS011;4369;47.842;13.096;2022-07-17T09:05:41;3.70;;;3.10;;
8663;SDS011;4369;47.842;13.096;2022-07-17T09:08:09;3.93;;;3.17;;
8663;SDS011;4369;47.842;13.096;2022-07-17T09:10:44;3.63;;;3.30;;
8663;SDS011;4369;47.842;13.096;2022-07-17T09:13:17;3.00;;;2.80;;
8663;SDS011;4369;47.842;13.096;2022-07-17T09:15:47;3.20;;;3.00;;
8663;SDS011;4369;47.842;13.096;2022-07-17T09:18:18;4.25;;;3.17;;
8663;SDS011;4369;47.842;13.096;2022-07-17T09:20:46;4.57;;;3.20;;
8663;SDS011;4369;47.842;13.096;2022-07-17T09:23:14;3.83;;;3.17;;
8663;SDS011;4369;47.842;13.096;2022-07-17T09:25:43;3.93;;;3.30;;
8663;SDS011;4369;47.842;13.096;2022-07-17T09:28:12;4.17;;;2.90;;
8663;SDS011;4369;47.842;13.096;2022-07-17T09:30:41;2.93;;;2.63;;
8663;SDS011;4369;47.842;13.096;2022-07-17T09:33:12;3.30;;;2.90;;
8663;SDS011;4369;47.842;13.096;2022-07-17T09:35:51;4.37;;;2.77;;
8663;SDS011;4369;47.842;13.096;2022-07-17T09:38:28;3.10;;;2.80;;
8663;SDS011;4369;47.842;13.096;2022-07-17T09:41:03;5.63;;;2.80;;
8663;SDS011;4369;47.842;13.096;2022-07-17T09:43:42;4.10;;;3.03;;
8663;SDS011;4369;47.842;13.096;2022-07-17T09:46:11;2.97;;;2.70;;
8663;SDS011;4369;47.842;13.096;2022-07-17T09:48:41;4.57;;;3.10;;
8663;SDS011;4369;47.842;13.096;2022-07-17T09:51:14;5.47;;;3.00;;
8663;SDS011;4369;47.842;13.096;2022-07-17T09:53:43;3.40;;;3.10;;
8663;SDS011;4369;47.842;13.096;2022-07-17T09:56:12;4.20;;;3.67;;
8663;SDS011;4369;47.842;13.096;2022-07-17T09:58:42;3.40;;;3.10;;
8663;SDS011;4369;47.842;13.096;2022-07-17T10:01:12;3.13;;;2.77;;
8663;SDS011;4369;47.842;13.096;2022-07-17T10:03:40;4.38;;;3.33;;
8663;SDS011;4369;47.842;13.096;2022-07-17T10:06:08;4.00;;;3.57;;
8663;SDS011;4369;47.842;13.096;2022-07-17T10:08:37;4.77;;;3.30;;
8663;SDS011;4369;47.842;13.096;2022-07-17T10:11:05;4.97;;;3.23;;
8663;SDS011;4369;47.842;13.096;2022-07-17T10:13:33;5.13;;;3.20;;
8663;SDS011;4369;47.842;13.096;2022-07-17T10:16:02;3.40;;;3.10;;
8663;SDS011;4369;47.842;13.096;2022-07-17T10:18:36;3.63;;;3.30;;
8663;SDS011;4369;47.842;13.096;2022-07-17T10:21:14;3.50;;;3.20;;
8663;SDS011;4369;47.842;13.096;2022-07-17T10:23:48;4.33;;;3.10;;
8663;SDS011;4369;47.842;13.096;2022-07-17T10:26:34;3.10;;;2.90;;
8663;SDS011;4369;47.842;13.096;2022-07-17T10:29:06;4.23;;;3.17;;
8663;SDS011;4369;47.842;13.096;2022-07-17T10:31:34;4.00;;;3.10;;
8663;SDS011;4369;47.842;13.096;2022-07-17T10:34:02;3.50;;;3.17;;
8663;SDS011;4369;47.842;13.096;2022-07-17T10:36:32;3.33;;;2.90;;
8663;SDS011;4369;47.842;13.096;2022-07-17T10:39:10;3.55;;;3.17;;
8663;SDS011;4369;47.842;13.096;2022-07-17T10:41:38;3.65;;;3.00;;
8663;SDS011;4369;47.842;13.096;2022-07-17T10:44:05;5.35;;;3.20;;
8663;SDS011;4369;47.842;13.096;2022-07-17T10:46:32;3.30;;;3.00;;
8663;SDS011;4369;47.842;13.096;2022-07-17T10:49:00;3.15;;;2.95;;
8663;SDS011;4369;47.842;13.096;2022-07-17T10:51:29;3.55;;;3.25;;
8663;SDS011;4369;47.842;13.096;2022-07-17T10:53:56;3.78;;;3.30;;
8663;SDS011;4369;47.842;13.096;2022-07-17T10:56:25;4.43;;;3.10;;
8663;SDS011;4369;47.842;13.096;2022-07-17T10:58:53;3.47;;;3.17;;
8663;SDS011;4369;47.842;13.096;2022-07-17T11:01:26;4.30;;;3.10;;
8663;SDS011;4369;47.842;13.096;2022-07-17T11:03:55;4.55;;;3.10;;
8663;SDS011;4369;47.842;13.096;2022-07-17T11:06:24;3.58;;;2.97;;
8663;SDS011;4369;47.842;13.096;2022-07-17T11:08:53;3.10;;;2.80;;
8663;SDS011;4369;47.842;13.096;2022-07-17T11:11:22;3.83;;;3.10;;
8663;SDS011;4369;47.842;13.096;2022-07-17T11:14:12;3.13;;;2.92;;
8663;SDS011;4369;47.842;13.096;2022-07-17T11:16:43;4.78;;;3.05;;
8663;SDS011;4369;47.842;13.096;2022-07-17T11:19:11;2.83;;;2.63;;
8663;SDS011;4369;47.842;13.096;2022-07-17T11:21:45;3.00;;;2.75;;
8663;SDS011;4369;47.842;13.096;2022-07-17T11:24:13;3.95;;;3.00;;
8663;SDS011;4369;47.842;13.096;2022-07-17T11:26:42;3.38;;;2.60;;
8663;SDS011;4369;47.842;13.096;2022-07-17T11:29:10;4.18;;;3.08;;
8663;SDS011;4369;47.842;13.096;2022-07-17T11:31:37;3.33;;;2.85;;
8663;SDS011;4369;47.842;13.096;2022-07-17T11:34:05;3.33;;;2.60;;
8663;SDS011;4369;47.842;13.096;2022-07-17T11:36:35;2.85;;;2.65;;
8663;SDS011;4369;47.842;13.096;2022-07-17T11:39:04;3.63;;;3.20;;
8663;SDS011;4369;47.842;13.096;2022-07-17T11:41:36;3.55;;;2.95;;
8663;SDS011;4369;47.842;13.096;2022-07-17T11:44:06;3.08;;;2.88;;
8663;SDS011;4369;47.842;13.096;2022-07-17T11:46:36;5.13;;;2.78;;
8663;SDS011;4369;47.842;13.096;2022-07-17T11:49:05;3.75;;;2.78;;
8663;SDS011;4369;47.842;13.096;2022-07-17T11:51:36;3.17;;;2.97;;
8663;SDS011;4369;47.842;13.096;2022-07-17T11:54:06;3.00;;;2.80;;
8663;SDS011;4369;47.842;13.096;2022-07-17T11:56:34;3.78;;;2.72;;
8663;SDS011;4369;47.842;13.096;2022-07-17T11:59:01;4.00;;;2.95;;
8663;SDS011;4369;47.842;13.096;2022-07-17T12:01:37;3.15;;;2.85;;
8663;SDS011;4369;47.842;13.096;2022-07-17T12:04:06;3.30;;;2.90;;
8663;SDS011;4369;47.842;13.096;2022-07-17T12:06:35;5.03;;;2.90;;
8663;SDS011;4369;47.842;13.096;2022-07-17T12:09:02;2.85;;;2.67;;
8663;SDS011;4369;47.842;13.096;2022-07-17T12:11:29;3.10;;;2.80;;
8663;SDS011;4369;47.842;13.096;2022-07-17T12:14:02;3.15;;;2.90;;
8663;SDS011;4369;47.842;13.096;2022-07-17T12:16:32;3.00;;;2.70;;
8663;SDS011;4369;47.842;13.096;2022-07-17T12:19:02;3.30;;;2.80;;
8663;SDS011;4369;47.842;13.096;2022-07-17T12:21:33;6.18;;;3.22;;
8663;SDS011;4369;47.842;13.096;2022-07-17T12:24:17;4.57;;;2.97;;
8663;SDS011;4369;47.842;13.096;2022-07-17T12:26:46;3.20;;;3.00;;
8663;SDS011;4369;47.842;13.096;2022-07-17T12:29:13;4.72;;;3.20;;
8663;SDS011;4369;47.842;13.096;2022-07-17T12:31:41;5.85;;;2.78;;
8663;SDS011;4369;47.842;13.096;2022-07-17T12:34:08;3.25;;;2.30;;
8663;SDS011;4369;47.842;13.096;2022-07-17T12:36:35;3.72;;;2.75;;
8663;SDS011;4369;47.842;13.096;2022-07-17T12:39:02;4.00;;;2.90;;
8663;SDS011;4369;47.842;13.096;2022-07-17T12:41:29;4.63;;;2.90;;
8663;SDS011;4369;47.842;13.096;2022-07-17T12:43:56;3.25;;;2.70;;
8663;SDS011;4369;47.842;13.096;2022-07-17T12:46:23;3.67;;;2.92;;
8663;SDS011;4369;47.842;13.096;2022-07-17T12:48:51;3.20;;;2.88;;
8663;SDS011;4369;47.842;13.096;2022-07-17T12:51:18;2.90;;;2.70;;
8663;SDS011;4369;47.842;13.096;2022-07-17T12:53:45;3.20;;;3.00;;
8663;SDS011;4369;47.842;13.096;2022-07-17T12:56:12;2.97;;;2.70;;
8663;SDS011;4369;47.842;13.096;2022-07-17T12:58:39;3.80;;;2.78;;
8663;SDS011;4369;47.842;13.096;2022-07-17T13:01:06;3.08;;;2.80;;
8663;SDS011;4369;47.842;13.096;2022-07-17T13:03:33;2.90;;;2.67;;
8663;SDS011;4369;47.842;13.096;2022-07-17T13:06:02;3.70;;;2.92;;
8663;SDS011;4369;47.842;13.096;2022-07-17T13:08:29;2.70;;;2.50;;
8663;SDS011;4369;47.842;13.096;2022-07-17T13:10:57;3.10;;;2.85;;
8663;SDS011;4369;47.842;13.096;2022-07-17T13:13:24;3.33;;;2.80;;
8663;SDS011;4369;47.842;13.096;2022-07-17T13:15:51;4.32;;;3.00;;
8663;SDS011;4369;47.842;13.096;2022-07-17T13:18:18;2.60;;;2.50;;
8663;SDS011;4369;47.842;13.096;2022-07-17T13:20:45;3.65;;;3.00;;
8663;SDS011;4369;47.842;13.096;2022-07-17T13:23:13;3.28;;;2.80;;
8663;SDS011;4369;47.842;13.096;2022-07-17T13:25:40;2.65;;;2.45;;
8663;SDS011;4369;47.842;13.096;2022-07-17T13:28:09;2.80;;;2.60;;
8663;SDS011;4369;47.842;13.096;2022-07-17T13:30:36;2.60;;;2.40;;
8663;SDS011;4369;47.842;13.096;2022-07-17T13:33:04;2.67;;;2.53;;
8663;SDS011;4369;47.842;13.096;2022-07-17T13:35:31;3.75;;;3.00;;
8663;SDS011;4369;47.842;13.096;2022-07-17T13:37:58;2.92;;;2.70;;
8663;SDS011;4369;47.842;13.096;2022-07-17T13:40:27;2.65;;;2.45;;
8663;SDS011;4369;47.842;13.096;2022-07-17T13:42:55;3.05;;;2.85;;
8663;SDS011;4369;47.842;13.096;2022-07-17T13:45:22;2.80;;;2.60;;
8663;SDS011;4369;47.842;13.096;2022-07-17T13:47:49;2.78;;;2.58;;
8663;SDS011;4369;47.842;13.096;2022-07-17T13:50:16;2.80;;;2.60;;
8663;SDS011;4369;47.842;13.096;2022-07-17T13:52:43;2.42;;;2.22;;
8663;SDS011;4369;47.842;13.096;2022-07-17T13:55:10;2.53;;;2.42;;
8663;SDS011;4369;47.842;13.096;2022-07-17T13:57:38;3.00;;;2.50;;
8663;SDS011;4369;47.842;13.096;2022-07-17T14:00:05;2.83;;;2.20;;
8663;SDS011;4369;47.842;13.096;2022-07-17T14:02:33;2.95;;;2.40;;
8663;SDS011;4369;47.842;13.096;2022-07-17T14:05:01;2.08;;;1.98;;
8663;SDS011;4369;47.842;13.096;2022-07-17T14:07:27;2.40;;;2.10;;
8663;SDS011;4369;47.842;13.096;2022-07-17T14:09:54;2.13;;;2.03;;
8663;SDS011;4369;47.842;13.096;2022-07-17T14:12:22;2.42;;;2.30;;
8663;SDS011;4369;47.842;13.096;2022-07-17T14:14:50;3.42;;;2.17;;
8663;SDS011;4369;47.842;13.096;2022-07-17T14:17:17;2.75;;;2.03;;
8663;SDS011;4369;47.842;13.096;2022-07-17T14:19:44;1.92;;;1.83;;
8663;SDS011;4369;47.842;13.096;2022-07-17T14:22:11;2.50;;;2.00;;
8663;SDS011;4369;47.842;13.096;2022-07-17T14:24:38;2.10;;;2.00;;
8663;SDS011;4369;47.842;13.096;2022-07-17T14:27:05;4.32;;;2.40;;
8663;SDS011;4369;47.842;13.096;2022-07-17T14:29:32;2.20;;;2.10;;
8663;SDS011;4369;47.842;13.096;2022-07-17T14:32:00;1.88;;;1.77;;
8663;SDS011;4369;47.842;13.096;2022-07-17T14:34:27;1.88;;;1.77;;
8663;SDS011;4369;47.842;13.096;2022-07-17T14:36:54;2.22;;;2.03;;
8663;SDS011;4369;47.842;13.096;2022-07-17T14:39:21;2.25;;;2.15;;
8663;SDS011;4369;47.842;13.096;2022-07-17T14:41:48;3.15;;;2.00;;
8663;SDS011;4369;47.842;13.096;2022-07-17T14:44:15;2.30;;;2.10;;
8663;SDS011;4369;47.842;13.096;2022-07-17T14:46:42;2.20;;;2.00;;
8663;SDS011;4369;47.842;13.096;2022-07-17T14:49:10;2.30;;;2.20;;
8663;SDS011;4369;47.842;13.096;2022-07-17T14:51:37;2.17;;;1.88;;
8663;SDS011;4369;47.842;13.096;2022-07-17T14:54:03;2.03;;;1.92;;
8663;SDS011;4369;47.842;13.096;2022-07-17T14:56:31;1.92;;;1.83;;
8663;SDS011;4369;47.842;13.096;2022-07-17T14:58:58;2.10;;;1.90;;
8663;SDS011;4369;47.842;13.096;2022-07-17T15:01:25;3.85;;;2.00;;
8663;SDS011;4369;47.842;13.096;2022-07-17T15:03:51;2.10;;;1.85;;
8663;SDS011;4369;47.842;13.096;2022-07-17T15:06:20;2.20;;;2.00;;